createdAt,value
2018-11-29T00:00:05.192Z,95.51
2018-11-29T00:00:31.299Z,95.17
2018-11-29T00:00:57.407Z,95.51
2018-11-29T00:01:23.512Z,96.08
2018-11-29T00:01:49.617Z,95.7
2018-11-29T00:02:15.720Z,95.7
2018-11-29T00:02:41.826Z,96.17
2018-11-29T00:03:07.940Z,95.79
2018-11-29T00:03:34.045Z,95.98
2018-11-29T00:04:00.186Z,95.7
2018-11-29T00:04:26.291Z,95.51
2018-11-29T00:04:52.404Z,95.7
2018-11-29T00:05:18.508Z,95.98
2018-11-29T00:05:44.611Z,95.41
2018-11-29T00:06:10.713Z,95.41
2018-11-29T00:06:36.818Z,95.22
2018-11-29T00:07:02.930Z,95.7
2018-11-29T00:07:29.037Z,95.12
2018-11-29T00:07:55.171Z,95.51
2018-11-29T00:08:21.341Z,95.32
2018-11-29T00:08:47.444Z,95.41
2018-11-29T00:09:13.584Z,95.22
2018-11-29T00:09:39.680Z,95.41
2018-11-29T00:10:05.812Z,95.51
2018-11-29T00:10:31.921Z,95.41
2018-11-29T00:10:58.026Z,95.22
2018-11-29T00:11:24.135Z,95.03
2018-11-29T00:11:50.246Z,95.41
2018-11-29T00:12:16.345Z,95.32
2018-11-29T00:12:42.477Z,95.51
2018-11-29T00:13:08.584Z,95.51
2018-11-29T00:13:34.689Z,95.32
2018-11-29T00:14:01.231Z,95.32
2018-11-29T00:14:27.337Z,95.41
2018-11-29T00:14:53.442Z,95.51
2018-11-29T00:15:19.551Z,95.7
2018-11-29T00:15:45.685Z,96.46
2018-11-29T00:16:11.787Z,95.98
2018-11-29T00:16:37.923Z,95.98
2018-11-29T00:17:04.061Z,95.79
2018-11-29T00:17:30.609Z,95.7
2018-11-29T00:17:56.712Z,95.79
2018-11-29T00:18:22.852Z,95.32
2018-11-29T00:18:48.961Z,95.7
2018-11-29T00:19:15.069Z,95.79
2018-11-29T00:19:41.176Z,96.17
2018-11-29T00:20:07.281Z,95.98
2018-11-29T00:20:33.419Z,95.89
2018-11-29T00:20:59.526Z,95.98
2018-11-29T00:21:25.626Z,95.98
2018-11-29T00:21:51.733Z,96.08
2018-11-29T00:22:17.834Z,95.89
2018-11-29T00:22:43.938Z,96.08
2018-11-29T00:23:10.045Z,96.17
2018-11-29T00:23:36.167Z,95.7
2018-11-29T00:24:02.259Z,95.32
2018-11-29T00:24:28.362Z,95.41
2018-11-29T00:24:54.475Z,95.32
2018-11-29T00:25:20.576Z,95.03
2018-11-29T00:25:46.685Z,95.22
2018-11-29T00:26:12.788Z,95.7
2018-11-29T00:26:38.900Z,95.32
2018-11-29T00:27:04.999Z,95.51
2018-11-29T00:27:31.106Z,95.51
2018-11-29T00:27:57.211Z,95.32
2018-11-29T00:28:23.316Z,95.03
2018-11-29T00:28:49.423Z,95.03
2018-11-29T00:29:15.529Z,95.51
2018-11-29T00:29:41.635Z,95.22
2018-11-29T00:30:07.746Z,95.32
2018-11-29T00:30:33.851Z,95.12
2018-11-29T00:30:59.958Z,95.22
2018-11-29T00:31:26.065Z,95.41
2018-11-29T00:31:52.168Z,95.22
2018-11-29T00:32:18.280Z,95.51
2018-11-29T00:32:44.387Z,95.12
2018-11-29T00:33:10.521Z,95.22
2018-11-29T00:33:36.652Z,94.93
2018-11-29T00:34:02.793Z,94.84
2018-11-29T00:34:28.898Z,94.84
2018-11-29T00:34:55.005Z,94.93
2018-11-29T00:35:21.103Z,94.74
2018-11-29T00:35:47.276Z,95.12
2018-11-29T00:36:13.407Z,95.12
2018-11-29T00:36:39.514Z,95.22
2018-11-29T00:37:05.616Z,95.51
2018-11-29T00:37:31.729Z,95.12
2018-11-29T00:37:57.837Z,95.32
2018-11-29T00:38:23.939Z,95.12
2018-11-29T00:38:50.047Z,95.51
2018-11-29T00:39:16.152Z,95.22
2018-11-29T00:39:42.265Z,95.51
2018-11-29T00:40:08.369Z,95.41
2018-11-29T00:40:34.474Z,95.51
2018-11-29T00:41:00.578Z,95.7
2018-11-29T00:41:26.684Z,95.32
2018-11-29T00:41:52.782Z,95.98
2018-11-29T00:42:18.894Z,95.51
2018-11-29T00:42:45.001Z,95.41
2018-11-29T00:43:11.109Z,95.32
2018-11-29T00:43:37.216Z,95.12
2018-11-29T00:44:03.324Z,95.12
2018-11-29T00:44:29.437Z,95.12
2018-11-29T00:44:55.564Z,95.32
2018-11-29T00:45:21.674Z,95.22
2018-11-29T00:45:47.771Z,95.22
2018-11-29T00:46:13.873Z,94.84
2018-11-29T00:46:39.984Z,94.65
2018-11-29T00:47:06.087Z,94.74
2018-11-29T00:47:32.192Z,95.32
2018-11-29T00:47:58.299Z,95.22
2018-11-29T00:48:24.408Z,95.03
2018-11-29T00:48:50.510Z,95.12
2018-11-29T00:49:16.619Z,95.32
2018-11-29T00:49:42.723Z,95.32
2018-11-29T00:50:08.826Z,95.12
2018-11-29T00:50:34.930Z,95.22
2018-11-29T00:51:01.046Z,95.32
2018-11-29T00:51:27.155Z,94.93
2018-11-29T00:51:53.281Z,95.32
2018-11-29T00:52:19.388Z,95.12
2018-11-29T00:52:45.503Z,94.98
2018-11-29T00:53:11.635Z,95.22
2018-11-29T00:53:37.770Z,94.74
2018-11-29T00:54:03.874Z,95.03
2018-11-29T00:54:29.981Z,94.7
2018-11-29T00:54:56.080Z,94.37
2018-11-29T00:55:22.190Z,94.37
2018-11-29T00:55:48.293Z,94.18
2018-11-29T00:56:14.422Z,94.32
2018-11-29T00:56:40.529Z,94.37
2018-11-29T00:57:06.639Z,94.6
2018-11-29T00:57:32.746Z,94.51
2018-11-29T00:57:58.851Z,94.89
2018-11-29T00:58:24.964Z,94.6
2018-11-29T00:58:51.060Z,94.79
2018-11-29T00:59:17.163Z,94.6
2018-11-29T00:59:43.269Z,94.42
2018-11-29T01:00:09.373Z,94.79
2018-11-29T01:00:35.479Z,94.42
2018-11-29T01:01:01.584Z,94.65
2018-11-29T01:01:27.693Z,94.65
2018-11-29T01:01:53.794Z,94.37
2018-11-29T01:02:19.907Z,94.37
2018-11-29T01:02:46.013Z,94.37
2018-11-29T01:03:12.117Z,94.27
2018-11-29T01:03:38.221Z,94.27
2018-11-29T01:04:04.352Z,94.42
2018-11-29T01:04:30.458Z,94.37
2018-11-29T01:04:56.567Z,94.51
2018-11-29T01:05:22.696Z,94.42
2018-11-29T01:05:48.805Z,94.79
2018-11-29T01:06:14.913Z,94.6
2018-11-29T01:06:41.011Z,94.46
2018-11-29T01:07:07.118Z,94.7
2018-11-29T01:07:33.230Z,94.6
2018-11-29T01:07:59.335Z,94.79
2018-11-29T01:08:25.475Z,94.79
2018-11-29T01:08:51.577Z,93.94
2018-11-29T01:09:18.779Z,94.32
2018-11-29T01:09:44.804Z,94.51
2018-11-29T01:10:10.910Z,94.22
2018-11-29T01:10:37.017Z,94.03
2018-11-29T01:11:03.118Z,94.13
2018-11-29T01:11:29.248Z,94.32
2018-11-29T01:11:55.356Z,94.7
2018-11-29T01:12:21.456Z,94.79
2018-11-29T01:12:47.562Z,94.42
2018-11-29T01:13:13.700Z,94.42
2018-11-29T01:13:39.802Z,94.32
2018-11-29T01:14:05.908Z,94.42
2018-11-29T01:14:32.022Z,94.32
2018-11-29T01:14:58.126Z,94.13
2018-11-29T01:15:24.229Z,94.13
2018-11-29T01:15:50.336Z,94.03
2018-11-29T01:16:16.441Z,94.03
2018-11-29T01:16:42.550Z,94.22
2018-11-29T01:17:08.662Z,94.13
2018-11-29T01:17:34.767Z,94.13
2018-11-29T01:18:00.867Z,94.22
2018-11-29T01:18:27.006Z,94.13
2018-11-29T01:18:53.106Z,94.03
2018-11-29T01:19:19.213Z,94.32
2018-11-29T01:19:45.322Z,94.03
2018-11-29T01:20:12.024Z,94.03
2018-11-29T01:20:38.127Z,94.22
2018-11-29T01:21:04.232Z,94.22
2018-11-29T01:21:30.343Z,94.32
2018-11-29T01:21:56.470Z,94.22
2018-11-29T01:22:22.572Z,94.32
2018-11-29T01:22:48.684Z,94.22
2018-11-29T01:23:14.794Z,94.13
2018-11-29T01:23:40.903Z,94.22
2018-11-29T01:24:07.002Z,94.32
2018-11-29T01:24:33.109Z,94.22
2018-11-29T01:24:59.218Z,94.13
2018-11-29T01:25:25.357Z,94.13
2018-11-29T01:25:51.464Z,94.13
2018-11-29T01:26:17.603Z,94.13
2018-11-29T01:26:43.710Z,94.13
2018-11-29T01:27:09.808Z,94.03
2018-11-29T01:27:35.911Z,93.94
2018-11-29T01:28:02.020Z,94.13
2018-11-29T01:28:28.155Z,93.84
2018-11-29T01:28:54.270Z,93.65
2018-11-29T01:29:20.368Z,94.13
2018-11-29T01:29:46.480Z,94.03
2018-11-29T01:30:12.581Z,94.22
2018-11-29T01:30:38.687Z,94.22
2018-11-29T01:31:04.790Z,94.6
2018-11-29T01:31:30.922Z,94.7
2018-11-29T01:31:57.031Z,94.79
2018-11-29T01:32:23.137Z,94.7
2018-11-29T01:32:49.248Z,94.32
2018-11-29T01:33:15.375Z,94.22
2018-11-29T01:33:41.484Z,94.32
2018-11-29T01:34:07.618Z,94.42
2018-11-29T01:34:33.724Z,94.03
2018-11-29T01:34:59.826Z,94.22
2018-11-29T01:35:25.958Z,94.03
2018-11-29T01:35:52.094Z,93.74
2018-11-29T01:36:18.199Z,93.55
2018-11-29T01:36:44.305Z,93.65
2018-11-29T01:37:10.446Z,93.74
2018-11-29T01:37:36.551Z,93.84
2018-11-29T01:38:02.654Z,94.03
2018-11-29T01:38:28.758Z,94.03
2018-11-29T01:38:54.864Z,93.84
2018-11-29T01:39:20.971Z,94.03
2018-11-29T01:39:47.075Z,94.42
2018-11-29T01:40:13.183Z,94.03
2018-11-29T01:40:39.355Z,94.03
2018-11-29T01:41:05.470Z,94.13
2018-11-29T01:41:31.566Z,94.13
2018-11-29T01:41:57.673Z,93.74
2018-11-29T01:42:23.778Z,94.13
2018-11-29T01:42:49.887Z,93.65
2018-11-29T01:43:15.990Z,93.65
2018-11-29T01:43:42.110Z,93.55
2018-11-29T01:44:08.241Z,93.65
2018-11-29T01:44:34.379Z,93.55
2018-11-29T01:45:00.486Z,93.65
2018-11-29T01:45:26.604Z,93.55
2018-11-29T01:45:52.694Z,93.65
2018-11-29T01:46:18.801Z,93.08
2018-11-29T01:46:44.939Z,93.27
2018-11-29T01:47:11.035Z,93.27
2018-11-29T01:47:37.146Z,93.37
2018-11-29T01:48:03.284Z,93.18
2018-11-29T01:48:29.388Z,93.37
2018-11-29T01:48:55.497Z,93.18
2018-11-29T01:49:21.604Z,93.37
2018-11-29T01:49:47.733Z,93.27
2018-11-29T01:50:13.842Z,93.27
2018-11-29T01:50:39.941Z,93.84
2018-11-29T01:51:06.049Z,93.27
2018-11-29T01:51:32.153Z,93.18
2018-11-29T01:51:58.252Z,93.27
2018-11-29T01:52:24.416Z,93.37
2018-11-29T01:52:50.527Z,93.18
2018-11-29T01:53:16.660Z,93.27
2018-11-29T01:53:42.759Z,93.18
2018-11-29T01:54:08.867Z,93.55
2018-11-29T01:54:35.007Z,93.84
2018-11-29T01:55:04.145Z,93.55
2018-11-29T01:55:30.277Z,93.65
2018-11-29T01:55:56.411Z,93.65
2018-11-29T01:56:22.522Z,93.55
2018-11-29T01:56:48.655Z,93.55
2018-11-29T01:57:14.760Z,93.74
2018-11-29T01:57:40.866Z,93.65
2018-11-29T01:58:07.009Z,93.03
2018-11-29T01:58:33.113Z,93.51
2018-11-29T01:58:59.223Z,93.08
2018-11-29T01:59:25.318Z,93.27
2018-11-29T01:59:51.421Z,93.37
2018-11-29T02:00:17.530Z,93.46
2018-11-29T02:00:43.665Z,93.18
2018-11-29T02:01:09.774Z,93.37
2018-11-29T02:01:35.881Z,93.18
2018-11-29T02:02:01.976Z,93.51
2018-11-29T02:02:28.106Z,93.18
2018-11-29T02:02:54.220Z,92.6
2018-11-29T02:03:20.351Z,93.51
2018-11-29T02:03:46.449Z,93.27
2018-11-29T02:04:12.559Z,93.18
2018-11-29T02:04:38.661Z,93.08
2018-11-29T02:05:04.795Z,93.22
2018-11-29T02:05:30.931Z,93.27
2018-11-29T02:05:57.044Z,93.27
2018-11-29T02:06:23.148Z,93.22
2018-11-29T02:06:49.247Z,93.27
2018-11-29T02:07:15.358Z,93.37
2018-11-29T02:07:41.478Z,93.32
2018-11-29T02:08:07.570Z,92.74
2018-11-29T02:08:33.674Z,93.03
2018-11-29T02:08:59.785Z,93.22
2018-11-29T02:09:25.893Z,93.03
2018-11-29T02:09:51.997Z,92.84
2018-11-29T02:10:18.106Z,92.84
2018-11-29T02:10:44.212Z,93.22
2018-11-29T02:11:10.314Z,93.22
2018-11-29T02:11:36.427Z,92.94
2018-11-29T02:12:02.526Z,92.94
2018-11-29T02:12:28.640Z,93.03
2018-11-29T02:12:54.745Z,92.94
2018-11-29T02:13:20.853Z,92.94
2018-11-29T02:13:46.961Z,92.94
2018-11-29T02:14:13.066Z,93.22
2018-11-29T02:14:39.171Z,92.89
2018-11-29T02:15:05.280Z,93.37
2018-11-29T02:15:31.389Z,92.99
2018-11-29T02:15:57.488Z,93.37
2018-11-29T02:16:23.619Z,93.32
2018-11-29T02:16:49.725Z,93.46
2018-11-29T02:17:15.835Z,93.32
2018-11-29T02:17:41.943Z,92.84
2018-11-29T02:18:08.046Z,92.55
2018-11-29T02:18:34.157Z,92.65
2018-11-29T02:19:00.264Z,93.03
2018-11-29T02:19:26.371Z,92.65
2018-11-29T02:19:52.505Z,93.13
2018-11-29T02:20:18.605Z,93.03
2018-11-29T02:20:44.734Z,93.03
2018-11-29T02:21:10.843Z,93.22
2018-11-29T02:21:37.347Z,92.74
2018-11-29T02:22:03.455Z,92.74
2018-11-29T02:22:29.555Z,92.89
2018-11-29T02:22:55.666Z,93.03
2018-11-29T02:23:21.777Z,92.55
2018-11-29T02:23:47.882Z,93.03
2018-11-29T02:24:13.982Z,92.94
2018-11-29T02:24:40.084Z,92.84
2018-11-29T02:25:06.192Z,92.84
2018-11-29T02:25:32.296Z,92.84
2018-11-29T02:25:58.397Z,92.84
2018-11-29T02:26:24.506Z,93.03
2018-11-29T02:26:50.619Z,93.13
2018-11-29T02:27:16.718Z,93.03
2018-11-29T02:27:42.826Z,93.22
2018-11-29T02:28:08.931Z,92.94
2018-11-29T02:28:35.034Z,93.22
2018-11-29T02:29:01.139Z,93.22
2018-11-29T02:29:27.248Z,93.51
2018-11-29T02:29:53.349Z,92.84
2018-11-29T02:30:19.510Z,92.84
2018-11-29T02:30:45.652Z,93.41
2018-11-29T02:31:11.751Z,92.74
2018-11-29T02:31:37.861Z,92.65
2018-11-29T02:32:03.993Z,92.55
2018-11-29T02:32:30.101Z,92.65
2018-11-29T02:32:56.227Z,93.03
2018-11-29T02:33:22.332Z,93.41
2018-11-29T02:33:48.468Z,93.41
2018-11-29T02:34:14.625Z,93.41
2018-11-29T02:34:40.738Z,93.51
2018-11-29T02:35:06.841Z,92.74
2018-11-29T02:35:32.942Z,92.74
2018-11-29T02:35:59.054Z,93.22
2018-11-29T02:36:25.162Z,93.03
2018-11-29T02:36:51.257Z,93.32
2018-11-29T02:37:17.391Z,92.84
2018-11-29T02:37:43.550Z,92.94
2018-11-29T02:38:09.659Z,93.03
2018-11-29T02:38:35.767Z,93.13
2018-11-29T02:39:01.937Z,92.94
2018-11-29T02:39:28.040Z,93.22
2018-11-29T02:39:54.148Z,93.03
2018-11-29T02:40:20.251Z,93.22
2018-11-29T02:40:46.392Z,93.22
2018-11-29T02:41:12.527Z,92.94
2018-11-29T02:41:38.633Z,93.03
2018-11-29T02:42:04.738Z,93.03
2018-11-29T02:42:30.876Z,92.65
2018-11-29T02:42:57.008Z,92.84
2018-11-29T02:43:23.146Z,93.03
2018-11-29T02:43:49.280Z,93.03
2018-11-29T02:44:15.381Z,92.65
2018-11-29T02:44:41.512Z,93.03
2018-11-29T02:45:07.619Z,93.13
2018-11-29T02:45:33.755Z,93.03
2018-11-29T02:45:59.855Z,92.94
2018-11-29T02:46:25.999Z,92.65
2018-11-29T02:46:52.099Z,92.55
2018-11-29T02:47:18.255Z,93.41
2018-11-29T02:47:44.401Z,93.22
2018-11-29T02:48:10.494Z,92.84
2018-11-29T02:48:36.630Z,92.74
2018-11-29T02:49:02.732Z,92.65
2018-11-29T02:49:28.836Z,92.84
2018-11-29T02:49:54.946Z,93.03
2018-11-29T02:50:21.047Z,93.03
2018-11-29T02:50:47.160Z,93.03
2018-11-29T02:51:13.267Z,93.03
2018-11-29T02:51:39.374Z,93.03
2018-11-29T02:52:05.504Z,92.94
2018-11-29T02:52:31.609Z,92.84
2018-11-29T02:52:57.710Z,93.03
2018-11-29T02:53:23.819Z,92.94
2018-11-29T02:53:49.959Z,92.94
2018-11-29T02:54:16.088Z,92.84
2018-11-29T02:54:42.195Z,92.94
2018-11-29T02:55:08.310Z,92.84
2018-11-29T02:55:34.417Z,93.22
2018-11-29T02:56:00.514Z,93.13
2018-11-29T02:56:26.614Z,93.13
2018-11-29T02:56:52.726Z,93.13
2018-11-29T02:57:18.836Z,93.32
2018-11-29T02:57:44.962Z,93.22
2018-11-29T02:58:11.073Z,93.03
2018-11-29T02:58:37.179Z,93.41
2018-11-29T02:59:03.314Z,93.13
2018-11-29T02:59:29.447Z,93.03
2018-11-29T02:59:55.590Z,93.03
2018-11-29T03:00:21.697Z,93.03
2018-11-29T03:00:47.802Z,93.32
2018-11-29T03:01:13.943Z,92.74
2018-11-29T03:01:40.053Z,92.27
2018-11-29T03:02:06.156Z,92.55
2018-11-29T03:02:32.255Z,92.36
2018-11-29T03:02:58.390Z,92.36
2018-11-29T03:03:24.563Z,92.84
2018-11-29T03:03:50.667Z,93.41
2018-11-29T03:04:16.772Z,93.22
2018-11-29T03:04:42.874Z,93.13
2018-11-29T03:05:08.980Z,92.94
2018-11-29T03:05:35.085Z,93.03
2018-11-29T03:06:01.231Z,92.94
2018-11-29T03:06:27.337Z,93.22
2018-11-29T03:06:53.480Z,93.03
2018-11-29T03:07:19.604Z,93.03
2018-11-29T03:07:45.743Z,93.22
2018-11-29T03:08:11.875Z,93.22
2018-11-29T03:08:38.006Z,93.13
2018-11-29T03:09:04.115Z,93.22
2018-11-29T03:09:30.246Z,93.32
2018-11-29T03:09:56.347Z,93.03
2018-11-29T03:10:22.482Z,92.94
2018-11-29T03:10:48.587Z,93.13
2018-11-29T03:11:14.688Z,93.03
2018-11-29T03:11:40.794Z,93.03
2018-11-29T03:12:06.904Z,93.32
2018-11-29T03:12:33.038Z,93.32
2018-11-29T03:12:59.172Z,93.22
2018-11-29T03:13:25.274Z,93.13
2018-11-29T03:13:51.375Z,92.94
2018-11-29T03:14:17.484Z,92.94
2018-11-29T03:14:43.591Z,93.03
2018-11-29T03:15:09.724Z,93.03
2018-11-29T03:15:35.830Z,92.84
2018-11-29T03:16:01.988Z,93.13
2018-11-29T03:16:28.113Z,93.03
2018-11-29T03:16:54.220Z,93.03
2018-11-29T03:17:20.326Z,93.13
2018-11-29T03:17:46.492Z,93.22
2018-11-29T03:18:12.650Z,93.32
2018-11-29T03:18:38.783Z,93.13
2018-11-29T03:19:04.928Z,93.03
2018-11-29T03:19:31.084Z,92.65
2018-11-29T03:19:57.193Z,93.03
2018-11-29T03:20:23.331Z,93.32
2018-11-29T03:20:49.434Z,92.94
2018-11-29T03:21:15.592Z,93.03
2018-11-29T03:21:41.705Z,93.32
2018-11-29T03:22:07.804Z,93.22
2018-11-29T03:22:33.915Z,93.32
2018-11-29T03:23:00.047Z,93.03
2018-11-29T03:23:26.145Z,92.84
2018-11-29T03:23:52.311Z,92.94
2018-11-29T03:24:18.446Z,92.94
2018-11-29T03:24:44.620Z,93.13
2018-11-29T03:25:10.752Z,92.94
2018-11-29T03:25:36.920Z,93.13
2018-11-29T03:26:03.080Z,93.03
2018-11-29T03:26:29.189Z,93.13
2018-11-29T03:26:55.340Z,93.32
2018-11-29T03:27:21.492Z,92.84
2018-11-29T03:27:47.679Z,92.94
2018-11-29T03:28:13.806Z,92.55
2018-11-29T03:28:40.214Z,92.46
2018-11-29T03:29:06.321Z,92.36
2018-11-29T03:29:32.421Z,93.22
2018-11-29T03:29:58.559Z,93.22
2018-11-29T03:30:24.688Z,92.46
2018-11-29T03:30:50.853Z,92.36
2018-11-29T03:31:17.008Z,92.65
2018-11-29T03:31:43.205Z,92.69
2018-11-29T03:32:09.399Z,92.5
2018-11-29T03:32:35.535Z,92.98
2018-11-29T03:33:01.668Z,92.46
2018-11-29T03:33:27.806Z,92.89
2018-11-29T03:33:53.991Z,92.74
2018-11-29T03:34:20.092Z,92.46
2018-11-29T03:34:46.207Z,92.5
2018-11-29T03:35:12.307Z,92.65
2018-11-29T03:35:38.415Z,92.84
2018-11-29T03:36:05.511Z,92.36
2018-11-29T03:36:31.619Z,92.46
2018-11-29T03:36:57.723Z,92.46
2018-11-29T03:37:23.826Z,92.36
2018-11-29T03:37:49.969Z,92.65
2018-11-29T03:38:16.097Z,92.46
2018-11-29T03:38:42.201Z,92.46
2018-11-29T03:39:08.302Z,92.5
2018-11-29T03:39:34.420Z,92.5
2018-11-29T03:40:00.530Z,92.22
2018-11-29T03:40:26.627Z,92.69
2018-11-29T03:40:52.769Z,91.94
2018-11-29T03:41:18.875Z,91.94
2018-11-29T03:41:44.977Z,92.36
2018-11-29T03:42:11.092Z,92.32
2018-11-29T03:42:37.231Z,92.32
2018-11-29T03:43:03.369Z,92.03
2018-11-29T03:43:29.477Z,92.22
2018-11-29T03:43:55.605Z,91.94
2018-11-29T03:44:21.719Z,91.94
2018-11-29T03:44:47.851Z,92.22
2018-11-29T03:45:13.986Z,91.65
2018-11-29T03:45:40.093Z,92.27
2018-11-29T03:46:06.204Z,92.6
2018-11-29T03:46:32.331Z,92.79
2018-11-29T03:46:58.518Z,93.17
2018-11-29T03:47:24.613Z,93.22
2018-11-29T03:47:50.743Z,93.08
2018-11-29T03:48:16.906Z,93.08
2018-11-29T03:48:43.019Z,92.98
2018-11-29T03:49:09.153Z,93.08
2018-11-29T03:49:35.263Z,93.17
2018-11-29T03:50:01.364Z,93.27
2018-11-29T03:50:27.498Z,92.5
2018-11-29T03:50:53.638Z,92.41
2018-11-29T03:51:19.746Z,92.79
2018-11-29T03:51:45.900Z,92.69
2018-11-29T03:52:12.044Z,92.5
2018-11-29T03:52:38.168Z,92.41
2018-11-29T03:53:04.272Z,92.5
2018-11-29T03:53:30.385Z,92.22
2018-11-29T03:53:56.486Z,92.32
2018-11-29T03:54:22.595Z,92.32
2018-11-29T03:54:48.749Z,92.79
2018-11-29T03:55:14.850Z,92.69
2018-11-29T03:55:40.957Z,92.5
2018-11-29T03:56:07.069Z,92.69
2018-11-29T03:56:33.173Z,92.69
2018-11-29T03:56:59.276Z,92.18
2018-11-29T03:57:25.379Z,92.13
2018-11-29T03:57:51.485Z,92.5
2018-11-29T03:58:17.580Z,92.13
2018-11-29T03:58:43.691Z,92.22
2018-11-29T03:59:09.829Z,92.46
2018-11-29T03:59:35.937Z,92.5
2018-11-29T04:00:02.042Z,92.5
2018-11-29T04:00:28.156Z,92.69
2018-11-29T04:00:54.263Z,92.32
2018-11-29T04:01:20.370Z,92.13
2018-11-29T04:01:46.475Z,92.03
2018-11-29T04:02:12.615Z,91.74
2018-11-29T04:02:38.721Z,92.13
2018-11-29T04:03:04.854Z,92.03
2018-11-29T04:03:30.967Z,91.94
2018-11-29T04:03:57.098Z,91.74
2018-11-29T04:04:23.199Z,91.84
2018-11-29T04:04:49.339Z,91.84
2018-11-29T04:05:15.480Z,91.74
2018-11-29T04:05:41.615Z,92.13
2018-11-29T04:06:07.722Z,91.84
2018-11-29T04:06:33.825Z,92.03
2018-11-29T04:06:59.959Z,91.84
2018-11-29T04:07:26.065Z,91.74
2018-11-29T04:07:52.165Z,92.22
2018-11-29T04:08:18.272Z,91.65
2018-11-29T04:08:44.380Z,91.84
2018-11-29T04:09:10.491Z,91.55
2018-11-29T04:09:36.603Z,91.74
2018-11-29T04:10:02.765Z,91.55
2018-11-29T04:10:28.873Z,91.84
2018-11-29T04:10:54.979Z,91.94
2018-11-29T04:11:21.092Z,91.84
2018-11-29T04:11:47.198Z,91.94
2018-11-29T04:12:13.341Z,91.94
2018-11-29T04:12:39.531Z,91.94
2018-11-29T04:13:05.663Z,91.94
2018-11-29T04:13:31.798Z,92.22
2018-11-29T04:13:57.966Z,91.74
2018-11-29T04:14:24.065Z,91.55
2018-11-29T04:14:50.197Z,91.84
2018-11-29T04:15:16.328Z,91.94
2018-11-29T04:15:42.434Z,91.65
2018-11-29T04:16:08.541Z,92.13
2018-11-29T04:16:34.667Z,91.89
2018-11-29T04:17:00.778Z,91.94
2018-11-29T04:17:26.880Z,91.94
2018-11-29T04:17:53.980Z,92.22
2018-11-29T04:18:20.096Z,92.22
2018-11-29T04:18:46.225Z,91.84
2018-11-29T04:19:12.387Z,91.74
2018-11-29T04:19:38.492Z,91.94
2018-11-29T04:20:04.594Z,91.94
2018-11-29T04:20:30.700Z,91.46
2018-11-29T04:20:56.831Z,91.74
2018-11-29T04:21:22.932Z,91.55
2018-11-29T04:21:49.056Z,91.74
2018-11-29T04:22:15.147Z,91.74
2018-11-29T04:22:41.276Z,91.74
2018-11-29T04:23:07.387Z,91.74
2018-11-29T04:23:33.498Z,91.74
2018-11-29T04:23:59.617Z,91.74
2018-11-29T04:24:25.796Z,91.74
2018-11-29T04:24:51.857Z,91.74
2018-11-29T04:25:17.994Z,91.74
2018-11-29T04:25:44.103Z,92.03
2018-11-29T04:26:10.290Z,91.74
2018-11-29T04:26:36.397Z,91.65
2018-11-29T04:27:02.506Z,91.74
2018-11-29T04:27:28.642Z,91.65
2018-11-29T04:27:54.752Z,91.74
2018-11-29T04:28:20.855Z,91.74
2018-11-29T04:28:46.968Z,91.84
2018-11-29T04:29:13.092Z,91.74
2018-11-29T04:29:39.230Z,91.84
2018-11-29T04:30:05.327Z,91.74
2018-11-29T04:30:31.439Z,91.74
2018-11-29T04:30:57.540Z,92.22
2018-11-29T04:31:23.647Z,92.03
2018-11-29T04:31:49.783Z,91.94
2018-11-29T04:32:15.913Z,91.94
2018-11-29T04:32:42.025Z,91.84
2018-11-29T04:33:09.046Z,91.74
2018-11-29T04:33:35.187Z,91.94
2018-11-29T04:34:01.299Z,92.13
2018-11-29T04:34:27.430Z,91.94
2018-11-29T04:34:53.590Z,91.94
2018-11-29T04:35:19.756Z,92.22
2018-11-29T04:35:45.891Z,92.22
2018-11-29T04:36:12.031Z,91.94
2018-11-29T04:36:38.167Z,91.94
2018-11-29T04:37:04.302Z,91.84
2018-11-29T04:37:30.406Z,92.13
2018-11-29T04:37:56.509Z,91.94
2018-11-29T04:38:22.617Z,91.84
2018-11-29T04:38:48.723Z,91.94
2018-11-29T04:39:14.892Z,91.94
2018-11-29T04:39:40.997Z,92.03
2018-11-29T04:40:07.129Z,91.65
2018-11-29T04:40:33.237Z,91.74
2018-11-29T04:40:59.347Z,91.94
2018-11-29T04:41:25.507Z,91.65
2018-11-29T04:41:51.643Z,91.84
2018-11-29T04:42:17.753Z,92.13
2018-11-29T04:42:43.853Z,91.94
2018-11-29T04:43:09.990Z,92.22
2018-11-29T04:43:36.119Z,92.22
2018-11-29T04:44:02.285Z,91.94
2018-11-29T04:44:28.410Z,92.03
2018-11-29T04:44:54.551Z,91.94
2018-11-29T04:45:20.692Z,91.55
2018-11-29T04:45:46.800Z,91.94
2018-11-29T04:46:12.898Z,91.74
2018-11-29T04:46:39.007Z,91.84
2018-11-29T04:47:05.173Z,92.13
2018-11-29T04:47:31.275Z,92.13
2018-11-29T04:47:57.375Z,92.13
2018-11-29T04:48:24.541Z,92.03
2018-11-29T04:48:50.677Z,92.03
2018-11-29T04:49:16.784Z,91.94
2018-11-29T04:49:42.888Z,92.03
2018-11-29T04:50:09.026Z,91.55
2018-11-29T04:50:35.181Z,91.36
2018-11-29T04:51:01.275Z,91.36
2018-11-29T04:51:27.386Z,91.65
2018-11-29T04:51:53.519Z,91.36
2018-11-29T04:52:19.654Z,91.17
2018-11-29T04:52:45.757Z,91.65
2018-11-29T04:53:11.864Z,91.65
2018-11-29T04:53:37.964Z,91.17
2018-11-29T04:54:04.127Z,91.46
2018-11-29T04:54:30.331Z,91.65
2018-11-29T04:54:56.438Z,91.65
2018-11-29T04:55:22.547Z,91.84
2018-11-29T04:55:48.653Z,91.94
2018-11-29T04:56:14.788Z,92.03
2018-11-29T04:56:40.923Z,92.13
2018-11-29T04:57:07.029Z,91.46
2018-11-29T04:57:33.128Z,91.55
2018-11-29T04:57:59.238Z,91.84
2018-11-29T04:58:25.349Z,91.55
2018-11-29T04:58:51.451Z,91.84
2018-11-29T04:59:17.561Z,91.74
2018-11-29T04:59:43.694Z,92.03
2018-11-29T05:00:09.793Z,91.74
2018-11-29T05:00:35.906Z,91.94
2018-11-29T05:01:02.045Z,92.41
2018-11-29T05:01:28.168Z,92.41
2018-11-29T05:01:54.304Z,92.5
2018-11-29T05:02:20.441Z,92.41
2018-11-29T05:02:46.847Z,92.32
2018-11-29T05:03:12.956Z,92.41
2018-11-29T05:03:39.057Z,92.5
2018-11-29T05:04:05.164Z,92.41
2018-11-29T05:04:31.272Z,92.5
2018-11-29T05:04:57.438Z,92.69
2018-11-29T05:05:23.544Z,92.03
2018-11-29T05:05:49.648Z,92.6
2018-11-29T05:06:15.749Z,92.13
2018-11-29T05:06:41.895Z,92.6
2018-11-29T05:07:08.025Z,92.69
2018-11-29T05:07:34.132Z,92.41
2018-11-29T05:08:00.267Z,92.79
2018-11-29T05:08:26.363Z,92.5
2018-11-29T05:08:52.503Z,93.08
2018-11-29T05:09:18.601Z,93.27
2018-11-29T05:09:44.715Z,92.89
2018-11-29T05:10:10.874Z,92.89
2018-11-29T05:10:36.981Z,92.79
2018-11-29T05:11:03.087Z,93.08
2018-11-29T05:11:29.222Z,92.89
2018-11-29T05:11:55.384Z,92.98
2018-11-29T05:12:21.501Z,93.08
2018-11-29T05:12:47.604Z,92.69
2018-11-29T05:13:13.743Z,92.41
2018-11-29T05:13:39.842Z,92.6
2018-11-29T05:14:05.980Z,92.6
2018-11-29T05:14:32.084Z,92.6
2018-11-29T05:14:58.193Z,92.5
2018-11-29T05:15:24.295Z,92.6
2018-11-29T05:15:50.436Z,92.13
2018-11-29T05:16:16.600Z,92.41
2018-11-29T05:16:42.700Z,92.41
2018-11-29T05:17:08.842Z,92.5
2018-11-29T05:17:34.942Z,92.32
2018-11-29T05:18:01.051Z,92.41
2018-11-29T05:18:27.160Z,92.5
2018-11-29T05:18:53.304Z,92.6
2018-11-29T05:19:19.428Z,92.41
2018-11-29T05:19:45.538Z,92.22
2018-11-29T05:20:11.733Z,92.5
2018-11-29T05:20:37.835Z,92.32
2018-11-29T05:21:03.960Z,92.22
2018-11-29T05:21:30.099Z,92.5
2018-11-29T05:21:56.213Z,92.32
2018-11-29T05:22:22.317Z,92.32
2018-11-29T05:22:48.417Z,92.22
2018-11-29T05:23:14.526Z,92.32
2018-11-29T05:23:40.665Z,92.22
2018-11-29T05:24:06.794Z,92.69
2018-11-29T05:24:32.928Z,92.6
2018-11-29T05:24:59.047Z,92.69
2018-11-29T05:25:25.151Z,92.5
2018-11-29T05:25:51.258Z,92.5
2018-11-29T05:26:17.397Z,92.6
2018-11-29T05:26:43.498Z,92.69
2018-11-29T05:27:09.625Z,92.32
2018-11-29T05:27:35.731Z,92.5
2018-11-29T05:28:01.837Z,92.69
2018-11-29T05:28:27.940Z,92.22
2018-11-29T05:28:54.098Z,92.32
2018-11-29T05:29:20.210Z,92.13
2018-11-29T05:29:46.315Z,92.03
2018-11-29T05:30:12.452Z,91.74
2018-11-29T05:30:38.556Z,91.74
2018-11-29T05:31:04.654Z,91.74
2018-11-29T05:31:30.766Z,91.94
2018-11-29T05:31:56.889Z,91.74
2018-11-29T05:32:22.991Z,91.74
2018-11-29T05:32:49.102Z,91.65
2018-11-29T05:33:15.211Z,92.03
2018-11-29T05:33:41.335Z,91.94
2018-11-29T05:34:07.444Z,91.94
2018-11-29T05:34:33.575Z,92.32
2018-11-29T05:34:59.679Z,91.94
2018-11-29T05:35:25.787Z,92.32
2018-11-29T05:35:51.928Z,92.22
2018-11-29T05:36:18.061Z,92.41
2018-11-29T05:36:44.162Z,92.41
2018-11-29T05:37:10.300Z,92.5